St.peterburg Pilot — UAMI — position and weather

sailwx.info

Track history (hours):
 
Tides and Currents Weather Stations Pressure Air Temp Water Temp Dewpoint Dewpoint Depression Visibility Wind Speed Wind Dir Waves Ship Positions

St.peterburg Pilot

Last reported at 2015-Jul-27 22:19 UTC. Time now 2015-Jul-28 13:17 UTC.
Position N 60°01' E 029°27'.

Length 59 m; draft 3.8 m.

Type: Pilot. MMSI: 273436530.

Date/timePositionNaut miles runAvg speedWind from/ knotsBaromVisibWave heightAir tempDewpointWater temp
2015-Jul-27 22:19N 60°01' E 029°27'0 0.0
2015-Jul-27 21:28N 60°01' E 029°27'0 0.0
2015-Jul-27 20:32N 60°01' E 029°27'0 0.0
2015-Jul-26 02:30N 60°01' E 029°27'0 0.0
2015-Jul-26 01:33N 60°01' E 029°27'0 0.0
2015-Jul-26 00:16N 60°01' E 029°27'0 0.0
2015-Jul-25 23:30N 60°01' E 029°27'0 0.0
2015-Jul-25 21:07N 60°01' E 029°27'0 0.0
2015-Jul-25 16:13N 60°01' E 029°27'6 0.8
2015-Jul-25 08:32N 59°60' E 029°39'2 0.1
2015-Jul-24 20:07N 59°59' E 029°42'0 0.0
2015-Jul-24 19:30N 59°59' E 029°42'0 0.0
2015-Jul-24 18:30N 59°59' E 029°42'0 0.0
2015-Jul-24 17:32N 59°59' E 029°42'0 0.0
2015-Jul-24 16:27N 59°59' E 029°42'0 0.0
2015-Jul-24 15:21N 59°59' E 029°42'0 0.0
2015-Jul-24 14:33N 59°59' E 029°42'0 0.0
2015-Jul-24 13:33N 59°59' E 029°42'0 0.0
2015-Jul-24 12:33N 59°59' E 029°42'0 0.0
2015-Jul-24 11:33N 59°59' E 029°42'0 0.0
2015-Jul-24 10:33N 59°59' E 029°42'0 0.0
2015-Jul-24 09:31N 59°59' E 029°42'0 0.0
2015-Jul-24 08:29N 59°59' E 029°42'0 0.0
2015-Jul-24 07:33N 59°59' E 029°42'0 0.0
2015-Jul-24 06:33N 59°59' E 029°42'0 0.0
2015-Jul-23 10:33N 59°59' E 029°42'0 0.0
2015-Jul-23 04:22N 59°59' E 029°42'0 0.0
2015-Jul-23 03:10N 59°59' E 029°42'0 0.0
2015-Jul-23 02:29N 59°59' E 029°42'0 0.0
2015-Jul-23 01:31N 59°59' E 029°42'0 0.0
2015-Jul-22 20:25N 59°59' E 029°42'0 0.0
2015-Jul-22 19:16N 59°59' E 029°42'0 0.0
2015-Jul-22 18:08N 59°59' E 029°42'0 0.0
2015-Jul-22 16:15N 59°59' E 029°42'5 7.9
2015-Jul-22 15:34N 59°57' E 029°52'1110.7
2015-Jul-22 14:33N 59°53' E 030°12'2 1.7
2015-Jul-22 13:33N 59°55' E 030°14'1 0.8
2015-Jul-22 12:26N 59°54' E 030°13'0 0.0
2015-Jul-22 11:31N 59°54' E 030°13'0 0.0
2015-Jul-22 10:33N 59°54' E 030°13'0 0.0
2015-Jul-22 09:33N 59°54' E 030°13'0 0.0
2015-Jul-22 08:32N 59°54' E 030°13'0 0.0
2015-Jul-22 07:33N 59°54' E 030°13'3 3.0
2015-Jul-22 06:33N 59°54' E 030°07'9 8.7
2015-Jul-22 05:33N 59°57' E 029°51'9 1.3
2015-Jul-21 22:17N 60°00' E 029°34'4 5.6
2015-Jul-21 21:30N 59°59' E 029°42'0 0.0
2015-Jul-21 20:10N 59°59' E 029°42'0 0.0
2015-Jul-21 18:23N 59°59' E 029°42'0 0.0
2015-Jul-21 17:28N 59°59' E 029°42'0 0.0
2015-Jul-21 16:32N 59°59' E 029°42'0 0.0
2015-Jul-21 15:33N 59°59' E 029°42'0 0.0
2015-Jul-21 14:33N 59°59' E 029°42'0 0.0
2015-Jul-21 13:33N 59°59' E 029°42'0 0.0
2015-Jul-21 12:33N 59°59' E 029°42'0 0.0
2015-Jul-20 09:33N 59°59' E 029°43'0 0.2
2015-Jul-20 08:33N 59°59' E 029°43'0 0.0
2015-Jul-20 07:32N 59°59' E 029°43'0 0.0
2015-Jul-19 18:18N 59°59' E 029°42'0 0.0
2015-Jul-19 17:28N 59°59' E 029°42'  
Track history (hours):
 
Tides and Currents Weather Stations Pressure Air Temp Water Temp Dewpoint Dewpoint Depression Visibility Wind Speed Wind Dir Waves Ship Positions

St.peterburg Pilot

Last reported at 2015-Jul-27 22:19 UTC. Time now 2015-Jul-28 13:17 UTC.
Position N 60°01' E 029°27'.

Length 59 m; draft 3.8 m.

Type: Pilot. MMSI: 273436530.

Date/timePositionNaut miles runAvg speedWind from/ knotsBaromVisibWave heightAir tempDewpointWater temp
2015-Jul-27 22:19N 60°01' E 029°27'0 0.0
2015-Jul-27 21:28N 60°01' E 029°27'0 0.0
2015-Jul-27 20:32N 60°01' E 029°27'0 0.0
2015-Jul-26 02:30N 60°01' E 029°27'0 0.0
2015-Jul-26 01:33N 60°01' E 029°27'0 0.0
2015-Jul-26 00:16N 60°01' E 029°27'0 0.0
2015-Jul-25 23:30N 60°01' E 029°27'0 0.0
2015-Jul-25 21:07N 60°01' E 029°27'0 0.0
2015-Jul-25 16:13N 60°01' E 029°27'6 0.8
2015-Jul-25 08:32N 59°60' E 029°39'2 0.1
2015-Jul-24 20:07N 59°59' E 029°42'0 0.0
2015-Jul-24 19:30N 59°59' E 029°42'0 0.0
2015-Jul-24 18:30N 59°59' E 029°42'0 0.0
2015-Jul-24 17:32N 59°59' E 029°42'0 0.0
2015-Jul-24 16:27N 59°59' E 029°42'0 0.0
2015-Jul-24 15:21N 59°59' E 029°42'0 0.0
2015-Jul-24 14:33N 59°59' E 029°42'0 0.0
2015-Jul-24 13:33N 59°59' E 029°42'0 0.0
2015-Jul-24 12:33N 59°59' E 029°42'0 0.0
2015-Jul-24 11:33N 59°59' E 029°42'0 0.0
2015-Jul-24 10:33N 59°59' E 029°42'0 0.0
2015-Jul-24 09:31N 59°59' E 029°42'0 0.0
2015-Jul-24 08:29N 59°59' E 029°42'0 0.0
2015-Jul-24 07:33N 59°59' E 029°42'0 0.0
2015-Jul-24 06:33N 59°59' E 029°42'0 0.0
2015-Jul-23 10:33N 59°59' E 029°42'0 0.0
2015-Jul-23 04:22N 59°59' E 029°42'0 0.0
2015-Jul-23 03:10N 59°59' E 029°42'0 0.0
2015-Jul-23 02:29N 59°59' E 029°42'0 0.0
2015-Jul-23 01:31N 59°59' E 029°42'0 0.0
2015-Jul-22 20:25N 59°59' E 029°42'0 0.0
2015-Jul-22 19:16N 59°59' E 029°42'0 0.0
2015-Jul-22 18:08N 59°59' E 029°42'0 0.0
2015-Jul-22 16:15N 59°59' E 029°42'5 7.9
2015-Jul-22 15:34N 59°57' E 029°52'1110.7
2015-Jul-22 14:33N 59°53' E 030°12'2 1.7
2015-Jul-22 13:33N 59°55' E 030°14'1 0.8
2015-Jul-22 12:26N 59°54' E 030°13'0 0.0
2015-Jul-22 11:31N 59°54' E 030°13'0 0.0
2015-Jul-22 10:33N 59°54' E 030°13'0 0.0
2015-Jul-22 09:33N 59°54' E 030°13'0 0.0
2015-Jul-22 08:32N 59°54' E 030°13'0 0.0
2015-Jul-22 07:33N 59°54' E 030°13'3 3.0
2015-Jul-22 06:33N 59°54' E 030°07'9 8.7
2015-Jul-22 05:33N 59°57' E 029°51'9 1.3
2015-Jul-21 22:17N 60°00' E 029°34'4 5.6
2015-Jul-21 21:30N 59°59' E 029°42'0 0.0
2015-Jul-21 20:10N 59°59' E 029°42'0 0.0
2015-Jul-21 18:23N 59°59' E 029°42'0 0.0
2015-Jul-21 17:28N 59°59' E 029°42'0 0.0
2015-Jul-21 16:32N 59°59' E 029°42'0 0.0
2015-Jul-21 15:33N 59°59' E 029°42'0 0.0
2015-Jul-21 14:33N 59°59' E 029°42'0 0.0
2015-Jul-21 13:33N 59°59' E 029°42'0 0.0
2015-Jul-21 12:33N 59°59' E 029°42'0 0.0
2015-Jul-20 09:33N 59°59' E 029°43'0 0.2
2015-Jul-20 08:33N 59°59' E 029°43'0 0.0
2015-Jul-20 07:32N 59°59' E 029°43'0 0.0
2015-Jul-19 18:18N 59°59' E 029°42'0 0.0
2015-Jul-19 17:28N 59°59' E 029°42'  

Dump ship's entire track history